createdAt,value
2022-11-09T00:03:56.319Z,6.20
2022-11-09T00:07:57.423Z,5.87
2022-11-09T00:11:59.636Z,8.13
2022-11-09T00:16:01.819Z,5.23
2022-11-09T00:20:03.979Z,7.17
2022-11-09T00:24:05.579Z,4.73
2022-11-09T00:28:06.727Z,8.40
2022-11-09T00:32:07.907Z,5.50
2022-11-09T00:36:11.930Z,5.47
2022-11-09T00:40:13.084Z,5.50
2022-11-09T00:44:14.396Z,6.40
2022-11-09T00:48:15.771Z,6.57
2022-11-09T00:52:17.113Z,7.17
2022-11-09T00:56:18.270Z,8.30
2022-11-09T01:00:22.837Z,6.83
2022-11-09T01:04:24.035Z,7.83
2022-11-09T01:08:25.717Z,7.10
2022-11-09T01:12:26.885Z,6.30
2022-11-09T01:16:28.225Z,7.03
2022-11-09T01:20:29.258Z,6.70
2022-11-09T01:24:30.484Z,3.30
2022-11-09T01:28:31.930Z,5.83
2022-11-09T01:32:33.221Z,8.40
2022-11-09T01:36:34.339Z,9.13
2022-11-09T01:40:38.011Z,10.60
2022-11-09T01:44:39.279Z,14.30
2022-11-09T01:48:49.663Z,9.47
2022-11-09T01:52:51.403Z,7.70
2022-11-09T01:56:56.036Z,8.90
2022-11-09T02:01:17.490Z,6.80
2022-11-09T02:05:22.464Z,6.27
2022-11-09T02:09:39.303Z,5.97
2022-11-09T02:13:46.761Z,6.57
2022-11-09T02:17:51.653Z,10.90
2022-11-09T02:21:53.044Z,12.57
2022-11-09T02:26:01.015Z,16.07
2022-11-09T02:30:04.169Z,16.00
2022-11-09T02:34:12.866Z,18.40
2022-11-09T02:38:14.923Z,19.10
2022-11-09T02:42:21.171Z,21.47
2022-11-09T02:46:34.804Z,23.53
2022-11-09T02:50:36.445Z,25.37
2022-11-09T02:54:37.907Z,28.23
2022-11-09T02:58:38.867Z,29.87
2022-11-09T03:02:40.686Z,31.67
2022-11-09T03:06:41.882Z,40.53
2022-11-09T03:10:42.998Z,89.77
2022-11-09T03:14:44.264Z,36.90
2022-11-09T03:18:45.454Z,95.97
2022-11-09T03:22:46.646Z,51.80
2022-11-09T03:26:47.931Z,44.60
2022-11-09T03:30:49.052Z,54.93
2022-11-09T03:34:51.035Z,46.23
2022-11-09T03:38:52.073Z,34.20
2022-11-09T03:42:53.353Z,29.93
2022-11-09T03:46:54.512Z,25.23
2022-11-09T03:50:55.768Z,23.53
2022-11-09T03:54:56.987Z,22.17
2022-11-09T03:58:58.138Z,18.37
2022-11-09T04:02:59.325Z,18.97
2022-11-09T04:07:00.520Z,18.43
2022-11-09T04:11:01.734Z,17.53
2022-11-09T04:15:03.163Z,17.37
2022-11-09T04:19:04.441Z,20.10
2022-11-09T04:23:07.018Z,16.67
2022-11-09T04:27:08.189Z,14.57
2022-11-09T04:31:09.490Z,17.80
2022-11-09T04:35:10.754Z,14.40
2022-11-09T04:39:12.255Z,12.40
2022-11-09T04:43:13.671Z,13.90
2022-11-09T04:47:14.769Z,12.93
2022-11-09T04:51:16.052Z,11.53
2022-11-09T04:55:17.595Z,12.30
2022-11-09T04:59:18.841Z,13.70
2022-11-09T05:03:20.876Z,14.77
2022-11-09T05:07:22.176Z,16.57
2022-11-09T05:11:24.010Z,17.33
2022-11-09T05:15:27.980Z,19.03
2022-11-09T05:19:29.176Z,20.03
2022-11-09T05:23:48.825Z,20.90
2022-11-09T05:27:49.987Z,24.00
2022-11-09T05:31:52.706Z,26.27
2022-11-09T05:35:54.940Z,25.67
2022-11-09T05:39:56.163Z,29.93
2022-11-09T05:43:57.260Z,30.80
2022-11-09T05:47:58.417Z,30.33
2022-11-09T05:51:59.642Z,33.10
2022-11-09T05:56:10.121Z,30.73
2022-11-09T06:00:12.764Z,32.47
2022-11-09T06:04:14.349Z,32.73
2022-11-09T06:08:15.744Z,28.47
2022-11-09T06:12:16.985Z,30.12
2022-11-09T06:16:18.351Z,30.77
2022-11-09T06:20:20.451Z,29.03
2022-11-09T06:24:21.837Z,27.45
2022-11-09T06:28:23.445Z,25.57
2022-11-09T06:32:24.719Z,26.43
2022-11-09T06:36:25.995Z,30.47
2022-11-09T06:40:27.829Z,31.27
2022-11-09T06:44:28.969Z,27.47
2022-11-09T06:48:30.041Z,29.70
2022-11-09T06:52:31.201Z,23.73
2022-11-09T06:56:32.399Z,20.53
2022-11-09T07:00:33.838Z,24.73
2022-11-09T07:04:34.929Z,22.50
2022-11-09T07:08:36.732Z,24.47
2022-11-09T07:12:37.983Z,24.07
2022-11-09T07:16:39.780Z,21.93
2022-11-09T07:20:41.081Z,18.87
2022-11-09T07:24:42.527Z,20.47
2022-11-09T07:28:44.170Z,18.80
2022-11-09T07:36:48.373Z,17.90
2022-11-09T07:40:49.743Z,21.67
2022-11-09T07:44:51.698Z,20.87
2022-11-09T07:48:53.191Z,25.83
2022-11-09T07:52:55.901Z,29.50
2022-11-09T07:56:57.291Z,33.33
2022-11-09T08:00:58.878Z,35.00
2022-11-09T08:05:00.449Z,40.60
2022-11-09T08:09:02.376Z,50.83
2022-11-09T08:13:07.743Z,50.00
2022-11-09T08:17:09.306Z,41.40
2022-11-09T08:21:10.564Z,44.40
2022-11-09T08:25:12.926Z,53.53
2022-11-09T08:29:15.219Z,47.53
2022-11-09T08:33:16.670Z,48.47
2022-11-09T08:37:18.184Z,47.93
2022-11-09T08:41:19.696Z,43.33
2022-11-09T08:45:21.219Z,38.37
2022-11-09T08:49:22.679Z,36.97
2022-11-09T08:53:26.386Z,35.23
2022-11-09T08:57:28.566Z,30.27
2022-11-09T09:01:30.956Z,31.97
2022-11-09T09:05:36.390Z,31.37
2022-11-09T09:09:37.942Z,26.77
2022-11-09T09:13:43.313Z,23.73
2022-11-09T09:17:42.847Z,23.13
2022-11-09T09:21:44.218Z,22.23
2022-11-09T09:25:45.891Z,18.23
2022-11-09T09:29:47.276Z,16.43
2022-11-09T09:33:48.700Z,15.87
2022-11-09T09:37:50.453Z,14.40
2022-11-09T09:41:58.449Z,12.47
2022-11-09T09:46:05.248Z,14.07
2022-11-09T09:50:10.395Z,11.43
2022-11-09T09:54:21.543Z,11.70
2022-11-09T09:58:28.420Z,12.57
2022-11-09T10:02:33.212Z,9.27
2022-11-09T10:06:50.544Z,9.13
2022-11-09T10:10:58.857Z,8.90
2022-11-09T10:15:19.140Z,8.93
2022-11-09T10:19:30.570Z,5.70
2022-11-09T10:24:01.849Z,6.40
2022-11-09T10:28:16.088Z,4.87
2022-11-09T10:32:15.945Z,6.27
2022-11-09T10:36:41.014Z,7.07
2022-11-09T10:40:46.138Z,6.63
2022-11-09T10:44:47.529Z,4.50
2022-11-09T10:48:48.933Z,2.50
2022-11-09T10:52:50.773Z,5.23
2022-11-09T10:57:07.957Z,5.40
2022-11-09T11:01:18.423Z,3.60
2022-11-09T11:05:23.439Z,2.10
2022-11-09T11:09:26.779Z,2.00
2022-11-09T11:13:28.315Z,6.00
2022-11-09T11:17:36.015Z,2.47
2022-11-09T11:21:37.550Z,2.53
2022-11-09T11:25:54.974Z,3.00
2022-11-09T11:30:06.201Z,4.10
2022-11-09T11:34:32.134Z,2.63
2022-11-09T11:38:39.919Z,2.50
2022-11-09T11:43:01.803Z,4.03
2022-11-09T11:47:11.930Z,4.30
2022-11-09T11:51:16.877Z,2.60
2022-11-09T11:55:22.013Z,2.87
2022-11-09T11:59:45.009Z,2.77
2022-11-09T12:04:04.796Z,2.17
2022-11-09T12:08:15.190Z,2.60
2022-11-09T12:12:35.587Z,9.03
2022-11-09T12:16:40.633Z,2.63
2022-11-09T12:20:54.630Z,2.37
2022-11-09T12:25:18.105Z,2.83
2022-11-09T12:29:22.963Z,3.23
2022-11-09T12:33:36.410Z,3.60
2022-11-09T12:37:41.164Z,2.00
2022-11-09T12:41:44.323Z,2.27
2022-11-09T12:45:46.165Z,3.37
2022-11-09T12:49:47.964Z,1.80
2022-11-09T12:53:49.456Z,1.97
2022-11-09T12:57:50.931Z,1.93
2022-11-09T13:01:57.810Z,6.23
2022-11-09T13:06:16.076Z,3.90
2022-11-09T13:10:33.986Z,2.43
2022-11-09T13:14:38.051Z,2.27
2022-11-09T13:18:45.397Z,4.27
2022-11-09T13:22:49.746Z,2.63
2022-11-09T13:26:54.758Z,2.10
2022-11-09T13:31:03.609Z,7.57
2022-11-09T13:35:07.008Z,2.17
2022-11-09T13:39:30.051Z,6.73
2022-11-09T13:43:34.719Z,3.30
2022-11-09T13:47:36.773Z,3.93
2022-11-09T13:51:42.011Z,3.13
2022-11-09T13:55:43.245Z,4.47
2022-11-09T13:59:48.110Z,3.40
2022-11-09T14:03:51.449Z,5.07
2022-11-09T14:07:54.966Z,8.17
2022-11-09T14:12:09.365Z,3.47
2022-11-09T14:16:21.943Z,4.27
2022-11-09T14:20:26.898Z,3.60
2022-11-09T14:24:32.332Z,2.97
2022-11-09T14:28:34.718Z,5.07
2022-11-09T14:32:36.703Z,3.07
2022-11-09T14:36:40.484Z,3.27
2022-11-09T14:40:46.402Z,5.53
2022-11-09T14:44:48.735Z,3.20
2022-11-09T14:48:58.571Z,4.27
2022-11-09T14:53:02.124Z,23.00
2022-11-09T14:57:04.391Z,6.73
2022-11-09T15:01:09.832Z,5.27
2022-11-09T15:05:38.844Z,5.37
2022-11-09T15:09:47.553Z,6.40
2022-11-09T15:13:48.864Z,3.90
2022-11-09T15:17:50.350Z,3.23
2022-11-09T15:21:52.300Z,3.80
2022-11-09T15:25:55.358Z,2.23
2022-11-09T15:29:56.888Z,4.60
2022-11-09T15:33:58.221Z,6.27
2022-11-09T15:37:59.711Z,4.07
2022-11-09T15:42:00.895Z,5.93
2022-11-09T15:46:03.120Z,7.17
2022-11-09T15:50:08.310Z,8.20
2022-11-09T15:54:10.513Z,11.87
2022-11-09T15:58:16.780Z,12.30
2022-11-09T16:02:18.696Z,10.97
2022-11-09T16:06:21.837Z,5.35
2022-11-09T16:10:23.293Z,8.27
2022-11-09T16:14:25.096Z,6.23
2022-11-09T16:18:26.452Z,8.23
2022-11-09T16:22:34.709Z,5.70
2022-11-09T16:26:35.987Z,3.47
2022-11-09T16:30:37.225Z,7.23
2022-11-09T16:34:38.852Z,7.07
2022-11-09T16:38:45.878Z,4.07
2022-11-09T16:42:48.736Z,4.10
2022-11-09T16:46:51.947Z,7.23
2022-11-09T16:50:53.491Z,7.37
2022-11-09T16:54:55.060Z,5.23
2022-11-09T16:58:56.192Z,6.77
2022-11-09T17:02:59.410Z,4.97
2022-11-09T17:07:00.817Z,4.47
2022-11-09T17:11:07.753Z,9.98
2022-11-09T17:15:09.960Z,7.30
2022-11-09T17:19:13.031Z,6.13
2022-11-09T17:23:17.529Z,3.77
2022-11-09T17:27:18.748Z,3.00
2022-11-09T17:31:23.501Z,5.23
2022-11-09T17:35:24.885Z,4.70
2022-11-09T17:39:26.570Z,7.37
2022-11-09T17:43:30.060Z,3.20
2022-11-09T17:47:31.431Z,6.53
2022-11-09T17:51:32.497Z,7.17
2022-11-09T17:55:36.994Z,7.83
2022-11-09T17:59:38.292Z,7.33
2022-11-09T18:03:40.217Z,3.63
2022-11-09T18:07:41.754Z,5.33
2022-11-09T18:11:43.701Z,6.90
2022-11-09T18:15:44.806Z,6.80
2022-11-09T18:19:46.427Z,6.30
2022-11-09T18:23:47.895Z,3.37
2022-11-09T18:27:49.225Z,8.23
2022-11-09T18:31:51.002Z,4.20
2022-11-09T18:35:58.008Z,8.37
2022-11-09T18:39:59.342Z,2.50
2022-11-09T18:44:00.600Z,4.87
2022-11-09T18:48:02.099Z,3.17
2022-11-09T18:52:04.050Z,6.83
2022-11-09T18:56:08.951Z,6.60
2022-11-09T19:00:13.318Z,5.78
2022-11-09T19:04:16.090Z,5.57
2022-11-09T19:08:19.648Z,3.50
2022-11-09T19:12:21.353Z,7.03
2022-11-09T19:16:23.170Z,3.27
2022-11-09T19:20:24.732Z,8.97
2022-11-09T19:24:29.298Z,4.37
2022-11-09T19:28:30.613Z,4.30
2022-11-09T19:32:32.097Z,5.07
2022-11-09T19:36:33.718Z,6.67
2022-11-09T19:40:39.558Z,4.13
2022-11-09T19:44:38.009Z,5.77
2022-11-09T19:48:45.193Z,3.87
2022-11-09T19:52:46.357Z,7.13
2022-11-09T19:56:47.696Z,10.03
2022-11-09T20:00:49.148Z,6.93
2022-11-09T20:04:56.003Z,8.37
2022-11-09T20:08:59.882Z,6.20
2022-11-09T20:13:01.259Z,6.77
2022-11-09T20:17:03.703Z,8.33
2022-11-09T20:21:07.546Z,6.03
2022-11-09T20:25:09.453Z,7.50
2022-11-09T20:29:10.845Z,9.73
2022-11-09T20:33:12.423Z,4.97
2022-11-09T20:37:13.475Z,8.33
2022-11-09T20:41:15.172Z,9.67
2022-11-09T20:45:16.376Z,6.53
2022-11-09T20:49:17.778Z,9.87
2022-11-09T20:53:19.445Z,7.93
2022-11-09T20:57:21.063Z,7.67
2022-11-09T21:01:26.734Z,11.93
2022-11-09T21:05:27.830Z,7.87
2022-11-09T21:09:29.372Z,7.00
2022-11-09T21:13:31.162Z,7.13
2022-11-09T21:17:32.735Z,4.43
2022-11-09T21:21:36.648Z,7.07
2022-11-09T21:25:57.345Z,5.63
2022-11-09T21:29:58.731Z,10.30
2022-11-09T21:33:59.978Z,3.63
2022-11-09T21:38:01.365Z,8.38
2022-11-09T21:42:04.332Z,6.17
2022-11-09T21:46:06.218Z,6.37
2022-11-09T21:50:12.554Z,4.50
2022-11-09T21:54:12.135Z,9.77
2022-11-09T21:58:13.423Z,5.03
2022-11-09T22:02:14.670Z,6.20
2022-11-09T22:06:16.579Z,7.17
2022-11-09T22:10:18.157Z,5.57
2022-11-09T22:14:38.784Z,8.70
2022-11-09T22:18:58.887Z,9.40
2022-11-09T22:23:05.497Z,6.20
2022-11-09T22:27:07.774Z,8.60
2022-11-09T22:31:10.101Z,12.77
2022-11-09T22:35:11.310Z,4.73
2022-11-09T22:39:12.813Z,8.80
2022-11-09T22:43:14.381Z,14.13
2022-11-09T22:47:15.913Z,7.90
2022-11-09T22:51:17.667Z,13.03
2022-11-09T22:55:19.830Z,14.40
2022-11-09T22:59:21.191Z,7.67
2022-11-09T23:03:22.713Z,9.87
2022-11-09T23:07:24.128Z,9.13
2022-11-09T23:11:25.664Z,8.43
2022-11-09T23:15:27.272Z,9.30
2022-11-09T23:19:28.440Z,4.53
2022-11-09T23:23:29.906Z,9.27
2022-11-09T23:27:30.958Z,7.43
2022-11-09T23:31:32.195Z,10.63
2022-11-09T23:35:34.297Z,12.30
2022-11-09T23:39:35.721Z,5.83
2022-11-09T23:43:37.809Z,11.23
2022-11-09T23:47:39.018Z,11.90
2022-11-09T23:51:40.191Z,10.90
2022-11-09T23:55:41.301Z,12.77
2022-11-09T23:59:42.314Z,13.77
